Time;durP1;ratioP1;P1;durP2;ratioP2;P2;SDS_P1;SDS_P2;PMS_P1;PMS_P2;Temp;Humidity;BMP_temperature;BMP_pressure;BME280_temperature;BME280_humidity;BME280_pressure;Samples;Min_cycle;Max_cycle;Signal;HPM_P1;HPM_P2
2022/04/05 00:01:28;;;;;;;13.73;2.20;;;7.20;99.90;;;;;;5094295;28;20046;-80
2022/04/05 00:03:55;;;;;;;13.63;1.88;;;7.10;99.90;;;;;;5094633;28;20036;-77
2022/04/05 00:06:20;;;;;;;12.65;1.25;;;7.10;99.90;;;;;;5089687;27;20370;-78
2022/04/05 00:08:46;;;;;;;16.17;2.10;;;7.00;99.90;;;;;;5109110;28;20028;-78
2022/04/05 00:11:12;;;;;;;17.95;2.13;;;7.10;99.90;;;;;;5112783;28;20036;-78
2022/04/05 00:13:40;;;;;;;13.98;2.45;;;7.00;99.90;;;;;;5076946;28;20047;-80
2022/04/05 00:16:06;;;;;;;18.10;2.60;;;6.90;99.90;;;;;;5076909;28;20052;-80
2022/04/05 00:18:32;;;;;;;13.98;1.83;;;7.10;99.90;;;;;;5094298;28;20031;-79
2022/04/05 00:20:58;;;;;;;13.95;2.25;;;6.90;99.90;;;;;;5077347;28;20056;-79
2022/04/05 00:23:23;;;;;;;14.55;1.80;;;7.00;99.90;;;;;;5077635;28;20051;-79
2022/04/05 00:25:49;;;;;;;16.73;1.90;;;7.00;99.90;;;;;;5093990;28;20486;-79
2022/04/05 00:28:15;;;;;;;12.32;1.58;;;7.10;99.90;;;;;;5112022;28;20043;-77
2022/04/05 00:30:40;;;;;;;14.57;1.80;;;7.10;99.90;;;;;;5097216;27;20046;-76
2022/04/05 00:33:06;;;;;;;15.30;1.83;;;7.00;99.90;;;;;;5114530;27;20118;-77
2022/04/05 00:35:32;;;;;;;15.43;1.75;;;7.00;99.90;;;;;;5096994;27;20042;-78
2022/04/05 00:37:57;;;;;;;13.98;1.80;;;7.10;99.90;;;;;;5133191;27;20039;-78
2022/04/05 00:40:25;;;;;;;14.30;1.85;;;7.10;99.90;;;;;;5114132;27;20035;-78
2022/04/05 00:42:51;;;;;;;17.85;2.15;;;7.00;99.90;;;;;;5113747;27;20448;-77
2022/04/05 00:45:20;;;;;;;15.55;2.40;;;7.00;99.90;;;;;;5096972;27;20090;-77
2022/04/05 00:47:48;;;;;;;14.20;2.05;;;7.00;99.90;;;;;;5134137;27;20047;-79
2022/04/05 00:50:21;;;;;;;14.80;1.70;;;6.80;99.90;;;;;;5134722;27;20110;-78
2022/04/05 00:52:47;;;;;;;13.38;1.90;;;6.90;99.90;;;;;;5115870;27;20039;-77
2022/04/05 00:55:12;;;;;;;15.75;2.05;;;6.80;99.90;;;;;;5114287;27;20039;-77
2022/04/05 00:57:39;;;;;;;19.15;2.28;;;6.80;99.90;;;;;;5111256;28;20078;-77
2022/04/05 01:00:07;;;;;;;16.70;2.40;;;6.90;99.90;;;;;;5093122;28;20467;-77
2022/04/05 01:02:38;;;;;;;15.32;1.50;;;6.90;99.90;;;;;;5075767;28;20051;-77
2022/04/05 01:05:05;;;;;;;18.17;2.38;;;6.90;99.90;;;;;;5077597;28;20525;-78
2022/04/05 01:07:32;;;;;;;28.80;2.83;;;6.90;99.90;;;;;;5096494;28;20051;-78
2022/04/05 01:09:59;;;;;;;20.73;2.40;;;6.80;99.90;;;;;;5114232;28;20502;-78
2022/04/05 01:12:24;;;;;;;11.80;2.03;;;6.80;99.90;;;;;;5134904;28;20119;-78
2022/04/05 01:14:51;;;;;;;15.07;2.50;;;6.80;99.90;;;;;;5099029;28;20128;-76
2022/04/05 01:17:17;;;;;;;14.77;1.73;;;6.80;99.90;;;;;;5098577;28;20039;-79
2022/04/05 01:19:46;;;;;;;20.55;2.47;;;6.80;99.90;;;;;;5116007;28;20054;-77
2022/04/05 01:22:13;;;;;;;13.82;2.13;;;6.80;99.90;;;;;;5113795;28;20133;-76
2022/04/05 01:24:38;;;;;;;13.65;1.92;;;6.90;99.90;;;;;;5113771;28;20043;-77
2022/04/05 01:27:06;;;;;;;11.07;2.00;;;6.90;99.90;;;;;;5112979;28;20076;-78
2022/04/05 01:29:32;;;;;;;14.27;2.03;;;6.80;99.90;;;;;;5096669;28;20382;-77
2022/04/05 01:32:06;;;;;;;21.52;2.33;;;6.80;99.90;;;;;;5131284;28;20508;-77
2022/04/05 01:34:34;;;;;;;20.65;2.30;;;6.80;99.90;;;;;;5096683;28;20077;-79
2022/04/05 01:37:04;;;;;;;23.15;2.60;;;6.90;99.90;;;;;;5113224;28;20046;-79
2022/04/05 01:39:33;;;;;;;12.00;1.80;;;6.90;99.90;;;;;;5113615;28;20043;-77
2022/04/05 01:42:05;;;;;;;21.35;2.70;;;7.00;99.90;;;;;;5112810;28;20654;-79
2022/04/05 01:44:32;;;;;;;13.65;2.30;;;6.80;99.90;;;;;;5096972;28;20339;-81
2022/04/05 01:47:04;;;;;;;15.88;2.00;;;6.80;99.90;;;;;;5113280;28;20123;-79
2022/04/05 01:49:30;;;;;;;19.83;2.53;;;6.80;99.90;;;;;;5096631;28;20117;-77
2022/04/05 01:51:55;;;;;;;17.83;2.70;;;6.90;99.90;;;;;;5113813;28;20130;-77
2022/04/05 01:54:21;;;;;;;25.13;2.65;;;6.80;99.90;;;;;;5113714;28;20115;-79
2022/04/05 01:56:49;;;;;;;18.88;2.20;;;6.90;99.90;;;;;;5095879;28;20039;-78
2022/04/05 01:59:19;;;;;;;18.67;2.05;;;6.80;99.90;;;;;;5113914;28;20424;-77
2022/04/05 02:01:45;;;;;;;18.63;2.70;;;7.10;99.90;;;;;;5113036;28;20046;-77
2022/04/05 02:04:11;;;;;;;29.98;2.88;;;6.70;99.90;;;;;;5096498;28;20043;-78
2022/04/05 02:06:41;;;;;;;18.27;3.38;;;6.80;99.90;;;;;;5096268;28;20035;-78
2022/04/05 02:09:07;;;;;;;22.55;2.85;;;6.80;99.90;;;;;;5095994;28;20063;-79
2022/04/05 02:11:34;;;;;;;24.17;2.95;;;6.90;99.90;;;;;;5113582;27;20039;-77
2022/04/05 02:13:59;;;;;;;20.25;2.55;;;6.80;99.90;;;;;;5116783;27;20086;-78
2022/04/05 02:16:26;;;;;;;29.75;3.13;;;6.80;99.90;;;;;;5116863;27;20070;-80
2022/04/05 02:18:52;;;;;;;24.48;2.88;;;6.80;99.90;;;;;;5117291;27;20049;-78
2022/04/05 02:21:18;;;;;;;23.38;3.15;;;6.80;99.90;;;;;;5096716;28;20376;-79
2022/04/05 02:23:44;;;;;;;27.23;3.45;;;6.80;99.90;;;;;;5096797;28;20055;-79
2022/04/05 02:26:10;;;;;;;24.85;3.42;;;6.70;99.90;;;;;;5096235;28;20455;-79
2022/04/05 02:28:35;;;;;;;33.17;4.40;;;6.80;99.90;;;;;;5096190;28;20522;-77
2022/04/05 02:31:01;;;;;;;23.55;3.63;;;6.80;99.90;;;;;;5082469;28;20063;-79
2022/04/05 02:33:27;;;;;;;29.20;3.67;;;7.00;99.90;;;;;;5096823;28;20071;-78
2022/04/05 02:35:53;;;;;;;28.05;3.35;;;6.80;99.90;;;;;;5096388;28;20035;-78
2022/04/05 02:38:19;;;;;;;21.48;2.50;;;6.70;99.90;;;;;;5096275;28;20035;-78
2022/04/05 02:40:45;;;;;;;19.52;2.35;;;6.70;99.90;;;;;;5079172;28;20483;-79
2022/04/05 02:43:11;;;;;;;27.38;3.25;;;6.70;99.90;;;;;;5075517;28;20052;-79
2022/04/05 02:45:37;;;;;;;27.38;3.42;;;6.60;99.90;;;;;;5092328;28;20477;-76
2022/04/05 02:48:03;;;;;;;37.88;3.55;;;6.60;99.90;;;;;;5092825;28;20475;-79
2022/04/05 02:50:29;;;;;;;36.85;3.42;;;6.60;99.90;;;;;;5092776;28;20089;-78
2022/04/05 02:52:54;;;;;;;23.80;3.05;;;6.70;99.90;;;;;;5092788;28;20032;-78
2022/04/05 02:55:21;;;;;;;27.45;3.63;;;6.70;99.90;;;;;;5092230;28;20051;-79
2022/04/05 02:57:47;;;;;;;28.23;2.90;;;6.60;99.90;;;;;;5095230;28;20051;-80
2022/04/05 03:00:15;;;;;;;36.42;4.18;;;6.80;99.90;;;;;;5113059;28;20043;-80
2022/04/05 03:02:42;;;;;;;31.65;3.10;;;6.70;99.90;;;;;;5095437;28;20162;-78
2022/04/05 03:05:09;;;;;;;30.00;3.38;;;6.60;99.90;;;;;;5112906;28;20047;-78
2022/04/05 03:07:36;;;;;;;28.80;3.40;;;6.70;99.90;;;;;;5095954;28;20108;-79
2022/04/05 03:10:07;;;;;;;31.35;3.38;;;6.60;99.90;;;;;;5107459;28;20413;-78
2022/04/05 03:12:35;;;;;;;26.70;3.10;;;6.70;99.90;;;;;;5075382;28;20384;-78
2022/04/05 03:15:04;;;;;;;23.10;3.38;;;6.60;99.90;;;;;;5092580;28;20109;-78
2022/04/05 03:17:30;;;;;;;20.10;2.60;;;6.50;99.90;;;;;;5092067;28;20056;-79
2022/04/05 03:19:58;;;;;;;26.77;3.22;;;6.60;99.90;;;;;;5092432;28;20036;-76
2022/04/05 03:22:24;;;;;;;24.98;3.45;;;6.50;99.90;;;;;;5091824;28;20048;-78
2022/04/05 03:24:49;;;;;;;23.13;3.53;;;6.60;99.90;;;;;;5092084;28;20067;-78
2022/04/05 03:27:15;;;;;;;20.63;3.15;;;6.50;99.90;;;;;;5091739;28;20036;-78
2022/04/05 03:29:40;;;;;;;20.35;2.85;;;6.60;99.90;;;;;;5092130;28;20047;-77
2022/04/05 03:32:06;;;;;;;32.42;3.75;;;6.50;99.90;;;;;;5092167;28;20042;-77
2022/04/05 03:34:32;;;;;;;24.65;2.60;;;6.50;99.90;;;;;;5092313;28;20078;-78
2022/04/05 03:36:58;;;;;;;29.15;2.95;;;6.40;99.90;;;;;;5093629;28;20418;-78
2022/04/05 03:39:23;;;;;;;18.70;2.30;;;6.50;99.90;;;;;;5092335;28;20528;-79
2022/04/05 03:41:49;;;;;;;33.22;3.28;;;6.50;99.90;;;;;;5091211;28;20109;-76
2022/04/05 03:44:16;;;;;;;34.42;3.55;;;6.40;99.90;;;;;;5093588;28;20055;-77
2022/04/05 03:46:41;;;;;;;26.08;2.70;;;6.50;99.90;;;;;;5091756;28;20360;-77
2022/04/05 03:49:07;;;;;;;26.67;3.33;;;6.40;99.90;;;;;;5091821;28;20099;-76
2022/04/05 03:51:33;;;;;;;24.30;3.30;;;6.40;99.90;;;;;;5091484;28;20109;-77
2022/04/05 03:53:59;;;;;;;22.88;2.67;;;6.50;99.90;;;;;;5091865;28;20103;-78
2022/04/05 03:56:24;;;;;;;33.38;3.72;;;6.30;99.90;;;;;;5074116;28;20089;-77
2022/04/05 03:58:50;;;;;;;24.80;3.00;;;6.40;99.90;;;;;;5103641;28;20093;-76
2022/04/05 04:01:17;;;;;;;29.10;3.03;;;6.60;99.90;;;;;;5094313;28;20054;-78
2022/04/05 04:03:43;;;;;;;26.30;2.90;;;6.40;99.90;;;;;;5111689;28;20389;-78
2022/04/05 04:06:08;;;;;;;31.35;3.65;;;6.40;99.90;;;;;;5111625;28;20040;-77
2022/04/05 04:08:35;;;;;;;23.67;3.08;;;6.40;99.90;;;;;;5113206;28;20089;-77
2022/04/05 04:11:01;;;;;;;28.40;3.08;;;6.30;99.90;;;;;;5094264;28;20040;-77
2022/04/05 04:13:27;;;;;;;30.27;3.38;;;6.40;99.90;;;;;;5094105;28;20042;-77
2022/04/05 04:15:53;;;;;;;25.38;3.10;;;6.40;99.90;;;;;;5111184;28;20035;-76
2022/04/05 04:18:19;;;;;;;33.70;3.42;;;6.40;99.90;;;;;;5111226;28;20432;-75
2022/04/05 04:20:45;;;;;;;22.65;2.45;;;6.40;99.90;;;;;;5111167;28;20078;-77
2022/04/05 04:23:11;;;;;;;29.23;3.25;;;6.50;99.90;;;;;;5111503;28;20126;-76
2022/04/05 04:25:37;;;;;;;30.70;2.90;;;6.40;99.90;;;;;;5077153;28;20076;-75
2022/04/05 04:28:08;;;;;;;25.83;2.97;;;6.40;99.90;;;;;;5093607;28;20039;-77
2022/04/05 04:30:35;;;;;;;27.70;3.15;;;6.40;99.90;;;;;;5110945;28;20140;-76
2022/04/05 04:33:02;;;;;;;22.27;3.10;;;6.40;99.90;;;;;;5111019;28;20035;-77
2022/04/05 04:35:28;;;;;;;29.75;3.95;;;6.40;99.90;;;;;;5110191;28;20111;-78
2022/04/05 04:37:54;;;;;;;29.23;3.53;;;6.30;99.90;;;;;;5093843;28;20125;-78
2022/04/05 04:40:20;;;;;;;29.08;3.30;;;6.20;99.90;;;;;;5110531;28;20058;-78
2022/04/05 04:42:46;;;;;;;22.08;3.03;;;6.30;99.90;;;;;;5110495;28;20139;-76
2022/04/05 04:45:12;;;;;;;24.33;3.33;;;6.30;99.90;;;;;;5077609;28;20050;-78
2022/04/05 04:47:39;;;;;;;31.02;3.15;;;6.20;99.90;;;;;;5111711;28;20035;-79
2022/04/05 04:50:06;;;;;;;32.25;3.10;;;6.20;99.90;;;;;;5112505;28;20046;-75
2022/04/05 04:52:32;;;;;;;22.15;2.35;;;6.20;99.90;;;;;;5110660;28;20122;-78
2022/04/05 04:54:59;;;;;;;27.15;2.85;;;6.20;99.90;;;;;;5110748;28;20078;-77
2022/04/05 04:57:25;;;;;;;34.75;3.50;;;6.30;99.90;;;;;;5110260;28;20146;-77
2022/04/05 04:59:52;;;;;;;35.58;3.92;;;6.20;99.90;;;;;;5110644;28;20083;-78
2022/04/05 05:02:18;;;;;;;25.33;2.47;;;6.20;99.90;;;;;;5110069;28;20044;-77
2022/04/05 05:04:44;;;;;;;29.73;3.33;;;6.20;99.90;;;;;;5110425;28;20105;-79
2022/04/05 05:07:09;;;;;;;22.95;2.75;;;6.20;99.90;;;;;;5093147;28;20057;-78
2022/04/05 05:09:35;;;;;;;30.85;2.95;;;6.30;99.90;;;;;;5110486;28;20118;-78
2022/04/05 05:12:01;;;;;;;34.83;3.40;;;6.30;99.90;;;;;;5111425;28;20028;-79
2022/04/05 05:14:27;;;;;;;26.08;3.30;;;6.30;99.90;;;;;;5112209;28;20074;-76
2022/04/05 05:16:54;;;;;;;26.75;2.97;;;6.30;99.90;;;;;;5092968;28;20036;-77
2022/04/05 05:19:21;;;;;;;31.73;3.33;;;6.30;99.90;;;;;;5111857;28;20051;-78
2022/04/05 05:21:46;;;;;;;26.42;2.58;;;6.30;99.90;;;;;;5110399;28;20065;-76
2022/04/05 05:24:12;;;;;;;26.48;3.72;;;6.30;99.90;;;;;;5093394;28;20055;-77
2022/04/05 05:26:38;;;;;;;25.75;3.25;;;6.30;99.90;;;;;;5109951;28;20039;-76
2022/04/05 05:29:03;;;;;;;18.58;3.20;;;6.30;99.90;;;;;;5093685;28;20054;-76
2022/04/05 05:31:29;;;;;;;21.10;2.63;;;6.40;99.90;;;;;;5109766;28;20046;-76
2022/04/05 05:33:55;;;;;;;21.02;2.65;;;6.40;99.90;;;;;;5093526;28;20043;-77
2022/04/05 05:36:20;;;;;;;30.52;3.20;;;6.40;99.90;;;;;;5110135;28;20122;-81
2022/04/05 05:38:46;;;;;;;31.73;3.60;;;6.50;99.90;;;;;;5091376;28;20200;-76
2022/04/05 05:41:13;;;;;;;25.83;3.38;;;6.40;99.90;;;;;;5073866;28;20450;-76
2022/04/05 05:43:38;;;;;;;24.70;3.13;;;6.50;99.90;;;;;;5111397;28;20123;-78
2022/04/05 05:46:06;;;;;;;23.65;3.17;;;6.40;99.90;;;;;;5077868;28;20123;-78
2022/04/05 05:48:35;;;;;;;32.97;3.47;;;6.60;99.90;;;;;;5097461;28;20027;-77
2022/04/05 05:51:01;;;;;;;27.65;3.80;;;6.50;99.90;;;;;;5079723;28;20043;-78
2022/04/05 05:53:27;;;;;;;26.52;3.63;;;6.60;99.90;;;;;;5115793;28;20039;-77
2022/04/05 05:55:53;;;;;;;27.40;3.30;;;6.50;99.90;;;;;;5115498;28;20054;-78
2022/04/05 05:58:19;;;;;;;18.92;2.72;;;6.60;99.90;;;;;;5096681;28;20051;-76
2022/04/05 06:00:45;;;;;;;25.15;3.35;;;6.90;99.90;;;;;;5096623;28;20074;-76
2022/04/05 06:03:11;;;;;;;20.27;3.40;;;6.60;99.90;;;;;;5097251;28;20039;-79
2022/04/05 06:05:36;;;;;;;20.55;2.65;;;6.60;99.90;;;;;;5102672;27;20035;-79
2022/04/05 06:08:04;;;;;;;23.35;2.78;;;6.50;99.90;;;;;;5100507;27;20054;-77
2022/04/05 06:10:30;;;;;;;16.30;2.70;;;6.70;99.90;;;;;;5100335;27;20046;-77
2022/04/05 06:12:57;;;;;;;27.42;3.28;;;6.60;99.90;;;;;;5116590;27;20079;-76
2022/04/05 06:15:25;;;;;;;23.75;3.20;;;6.80;99.90;;;;;;5116418;27;20458;-78
2022/04/05 06:17:52;;;;;;;26.98;2.75;;;6.70;99.90;;;;;;5117236;27;20394;-76
2022/04/05 06:20:19;;;;;;;25.00;3.88;;;6.70;99.90;;;;;;5100220;27;20057;-79
2022/04/05 06:22:50;;;;;;;28.30;3.08;;;6.80;99.90;;;;;;5117646;27;20050;-79
2022/04/05 06:25:21;;;;;;;21.77;3.00;;;6.80;99.90;;;;;;5117354;27;20039;-78
2022/04/05 06:27:47;;;;;;;19.27;3.03;;;6.90;99.90;;;;;;5096185;28;20047;-79
2022/04/05 06:30:15;;;;;;;23.55;3.08;;;6.80;99.90;;;;;;5109790;27;20035;-78
2022/04/05 06:32:40;;;;;;;20.10;2.33;;;6.80;99.90;;;;;;5118144;27;20068;-79
2022/04/05 06:35:08;;;;;;;22.40;3.05;;;6.90;99.90;;;;;;5101282;27;20066;-78
2022/04/05 06:37:37;;;;;;;20.70;2.50;;;7.00;99.90;;;;;;5116845;27;20187;-78
2022/04/05 06:40:05;;;;;;;21.42;2.50;;;6.90;99.90;;;;;;5116828;27;20100;-79
2022/04/05 06:42:31;;;;;;;18.88;3.38;;;7.00;99.90;;;;;;5116234;27;20051;-79
2022/04/05 06:44:57;;;;;;;20.63;2.67;;;7.10;99.90;;;;;;5116541;27;20434;-77
2022/04/05 06:47:23;;;;;;;23.17;2.80;;;7.20;99.90;;;;;;5116406;27;20046;-76
2022/04/05 06:49:48;;;;;;;26.58;3.17;;;7.20;99.90;;;;;;5116930;27;20043;-77
2022/04/05 06:52:14;;;;;;;22.42;2.80;;;7.30;99.90;;;;;;5116618;27;20465;-78
2022/04/05 06:54:40;;;;;;;17.58;2.95;;;7.30;99.90;;;;;;5116561;27;20034;-76
2022/04/05 06:57:06;;;;;;;23.52;2.92;;;7.40;99.90;;;;;;5133461;27;20394;-79
2022/04/05 06:59:32;;;;;;;31.30;3.60;;;7.50;99.90;;;;;;5118666;27;20031;-79
2022/04/05 07:01:58;;;;;;;23.52;2.95;;;7.40;99.90;;;;;;5099165;27;20077;-79
2022/04/05 07:04:23;;;;;;;21.27;2.63;;;7.50;99.90;;;;;;5098849;27;20043;-78
2022/04/05 07:06:49;;;;;;;22.33;2.80;;;7.50;99.90;;;;;;5099302;27;20027;-79
2022/04/05 07:09:15;;;;;;;23.15;3.58;;;7.60;99.90;;;;;;5134816;27;20035;-77
2022/04/05 07:11:40;;;;;;;25.98;3.60;;;7.60;99.90;;;;;;5134260;27;20039;-77
2022/04/05 07:14:06;;;;;;;27.05;3.13;;;7.70;99.90;;;;;;5098920;27;20039;-77
2022/04/05 07:16:32;;;;;;;16.85;2.80;;;7.60;99.90;;;;;;5106662;28;20043;-79
2022/04/05 07:18:57;;;;;;;20.20;3.47;;;7.70;99.90;;;;;;5095901;28;20126;-77
2022/04/05 07:21:23;;;;;;;20.02;3.25;;;7.70;99.90;;;;;;5113924;28;20036;-77
2022/04/05 07:23:50;;;;;;;15.20;2.65;;;7.60;99.90;;;;;;5095504;28;20035;-79
2022/04/05 07:26:15;;;;;;;14.63;2.70;;;7.70;99.90;;;;;;5095150;28;20039;-78
2022/04/05 07:28:41;;;;;;;18.50;2.83;;;7.70;99.90;;;;;;5095279;28;20045;-78
2022/04/05 07:31:07;;;;;;;12.90;2.33;;;7.80;99.90;;;;;;5095173;28;20421;-79
2022/04/05 07:33:33;;;;;;;20.38;3.05;;;7.70;99.90;;;;;;5095384;28;20036;-76
2022/04/05 07:35:59;;;;;;;16.17;2.50;;;7.70;99.90;;;;;;5095161;28;20179;-77
2022/04/05 07:38:24;;;;;;;20.33;3.08;;;7.80;99.90;;;;;;5095193;28;20115;-78
2022/04/05 07:40:52;;;;;;;15.13;2.40;;;7.80;99.90;;;;;;5078005;28;20135;-79
2022/04/05 07:43:23;;;;;;;16.63;2.70;;;7.70;99.90;;;;;;5077557;28;20051;-80
2022/04/05 07:45:50;;;;;;;16.75;3.00;;;7.90;99.90;;;;;;5077539;28;20044;-78
2022/04/05 07:48:20;;;;;;;13.68;2.63;;;7.70;99.90;;;;;;5078312;28;20455;-78
2022/04/05 07:50:47;;;;;;;14.77;2.45;;;7.70;99.90;;;;;;5113320;28;20115;-79
2022/04/05 07:53:14;;;;;;;14.57;2.42;;;7.80;99.90;;;;;;5077569;28;20040;-80
2022/04/05 07:55:40;;;;;;;13.90;2.38;;;7.70;99.90;;;;;;5094572;28;20134;-79
2022/04/05 07:58:06;;;;;;;15.15;2.67;;;7.80;99.90;;;;;;5096505;28;20142;-79
2022/04/05 08:00:32;;;;;;;13.25;2.50;;;7.80;99.90;;;;;;5078662;28;20043;-77
2022/04/05 08:02:58;;;;;;;17.88;2.60;;;7.80;99.90;;;;;;5094822;28;20243;-78
2022/04/05 08:05:23;;;;;;;13.43;2.90;;;7.90;99.90;;;;;;5098527;27;20161;-79
2022/04/05 08:07:50;;;;;;;18.08;2.72;;;8.00;99.90;;;;;;5115226;27;20088;-79
2022/04/05 08:10:16;;;;;;;22.80;3.10;;;7.80;99.90;;;;;;5097259;27;20442;-79
2022/04/05 08:12:44;;;;;;;20.98;3.30;;;7.90;99.90;;;;;;5098087;27;20038;-79
2022/04/05 08:15:16;;;;;;;15.95;2.65;;;7.90;99.90;;;;;;5115018;27;20117;-80
2022/04/05 08:17:41;;;;;;;19.70;2.50;;;8.00;99.90;;;;;;5114954;27;20038;-78
2022/04/05 08:20:08;;;;;;;16.55;2.92;;;8.00;99.90;;;;;;5133663;27;20096;-76
2022/04/05 08:22:34;;;;;;;23.02;2.60;;;7.70;99.90;;;;;;5133335;27;20043;-76
2022/04/05 08:24:59;;;;;;;11.30;2.38;;;8.00;99.90;;;;;;5097506;27;20051;-78
2022/04/05 08:27:25;;;;;;;21.60;3.05;;;8.10;99.90;;;;;;5133029;27;20039;-78
2022/04/05 08:29:51;;;;;;;17.85;3.22;;;8.10;99.90;;;;;;5097943;27;20035;-79
2022/04/05 08:32:17;;;;;;;18.88;2.58;;;8.10;99.90;;;;;;5097224;27;20058;-79
2022/04/05 08:34:42;;;;;;;18.60;2.85;;;8.10;99.90;;;;;;5097985;27;20164;-79
2022/04/05 08:37:08;;;;;;;18.90;3.08;;;8.20;99.90;;;;;;5114462;27;20479;-79
2022/04/05 08:39:35;;;;;;;18.33;2.63;;;8.20;99.90;;;;;;5133133;27;20102;-77
2022/04/05 08:42:02;;;;;;;22.45;3.10;;;8.10;99.90;;;;;;5096843;27;20498;-78
2022/04/05 08:44:29;;;;;;;16.73;2.80;;;8.10;99.90;;;;;;5114510;27;20047;-79
2022/04/05 08:46:54;;;;;;;16.40;3.17;;;8.00;99.90;;;;;;5114124;27;20481;-79
2022/04/05 08:49:22;;;;;;;28.27;3.20;;;8.10;99.90;;;;;;5114308;27;20050;-77
2022/04/05 08:51:49;;;;;;;15.73;2.53;;;8.00;99.90;;;;;;5096781;27;20043;-80
2022/04/05 08:54:15;;;;;;;15.73;2.58;;;8.10;99.90;;;;;;5112447;28;20039;-77
2022/04/05 08:56:41;;;;;;;9.93;2.33;;;8.20;99.90;;;;;;5093474;28;20043;-78
2022/04/05 08:59:06;;;;;;;11.85;2.58;;;8.30;99.90;;;;;;5094061;28;20122;-79
2022/04/05 09:01:34;;;;;;;8.45;2.40;;;8.50;99.90;;;;;;5093273;28;20493;-79
2022/04/05 09:04:00;;;;;;;7.13;2.05;;;8.50;99.90;;;;;;5076707;28;20514;-79
2022/04/05 09:06:31;;;;;;;11.52;1.85;;;8.80;99.90;;;;;;5107440;27;20039;-79
2022/04/05 09:08:58;;;;;;;42.30;4.05;;;8.80;99.90;;;;;;5114546;27;20050;-78
2022/04/05 09:11:27;;;;;;;6.30;1.63;;;8.90;99.90;;;;;;5131990;27;20039;-78
2022/04/05 09:13:58;;;;;;;8.05;1.85;;;9.20;99.90;;;;;;5097528;28;20071;-79
2022/04/05 09:16:34;;;;;;;7.43;2.15;;;8.90;99.90;;;;;;5114000;28;20425;-77
2022/04/05 09:19:11;;;;;;;6.93;1.92;;;9.00;99.90;;;;;;5114037;28;20035;-79
2022/04/05 09:21:57;;;;;;;8.75;1.98;;;9.00;99.90;;;;;;5099871;27;20039;-79
2022/04/05 09:24:32;;;;;;;9.25;1.63;;;9.20;99.90;;;;;;5118310;27;20524;-80
2022/04/05 09:26:58;;;;;;;7.45;1.60;;;9.00;99.90;;;;;;5117572;27;20465;-79
2022/04/05 09:29:43;;;;;;;7.97;1.70;;;9.00;99.90;;;;;;5118633;27;20039;-78
2022/04/05 09:32:10;;;;;;;9.73;2.00;;;8.90;99.90;;;;;;5117673;27;20528;-78
2022/04/05 09:34:50;;;;;;;7.88;1.75;;;9.00;99.90;;;;;;5101168;27;20377;-78
2022/04/05 09:37:16;;;;;;;8.40;2.03;;;9.20;99.90;;;;;;5117849;27;20043;-80
2022/04/05 09:39:43;;;;;;;9.88;1.88;;;9.00;99.90;;;;;;5118244;27;20123;-78
2022/04/05 09:42:09;;;;;;;8.20;2.20;;;8.90;99.90;;;;;;5117401;27;20071;-79
2022/04/05 09:44:37;;;;;;;7.25;1.60;;;9.00;99.90;;;;;;5107188;28;20055;-81
2022/04/05 09:47:07;;;;;;;9.07;1.77;;;9.00;99.90;;;;;;5096982;28;20061;-80
2022/04/05 09:49:38;;;;;;;9.60;2.10;;;8.90;99.90;;;;;;5097869;28;20040;-81
2022/04/05 09:52:21;;;;;;;6.38;1.70;;;8.80;99.90;;;;;;5080555;28;20067;-80
2022/04/05 09:54:47;;;;;;;8.43;1.90;;;9.00;99.90;;;;;;5080742;28;20043;-79
2022/04/05 09:57:13;;;;;;;12.90;2.42;;;8.60;99.90;;;;;;5096856;28;20036;-80
2022/04/05 09:59:43;;;;;;;10.77;1.98;;;8.80;99.90;;;;;;5080257;28;20379;-80
2022/04/05 10:02:16;;;;;;;10.02;2.50;;;8.70;99.90;;;;;;5097072;28;20130;-78
2022/04/05 10:05:06;;;;;;;10.55;2.42;;;9.30;99.90;;;;;;5097136;28;20042;-78
2022/04/05 10:07:33;;;;;;;8.35;2.67;;;8.90;99.90;;;;;;5097018;28;20031;-81
2022/04/05 10:10:00;;;;;;;7.95;2.10;;;8.90;99.90;;;;;;5096822;28;20043;-81
2022/04/05 10:12:27;;;;;;;7.57;1.67;;;8.90;99.90;;;;;;5079884;28;20131;-78
2022/04/05 10:14:53;;;;;;;6.00;1.88;;;8.80;99.90;;;;;;5080206;28;20079;-78
2022/04/05 10:17:22;;;;;;;5.93;1.80;;;8.80;99.90;;;;;;5096530;28;20036;-78
2022/04/05 10:19:49;;;;;;;5.57;1.80;;;9.00;99.90;;;;;;5115389;28;20477;-81
2022/04/05 10:22:16;;;;;;;7.25;2.38;;;8.80;99.90;;;;;;5079532;28;20044;-77
2022/04/05 10:24:44;;;;;;;5.55;1.88;;;8.80;99.90;;;;;;5096699;28;20035;-78
2022/04/05 10:27:13;;;;;;;4.57;2.03;;;8.80;99.90;;;;;;5078798;28;20055;-78
2022/04/05 10:29:40;;;;;;;2.85;1.50;;;8.80;99.90;;;;;;5079853;28;20105;-79
2022/04/05 10:32:24;;;;;;;3.85;1.58;;;8.90;99.90;;;;;;5096730;28;20047;-80
2022/04/05 10:35:05;;;;;;;4.55;1.90;;;8.90;99.90;;;;;;5096487;28;20035;-78
2022/04/05 10:37:41;;;;;;;10.00;1.80;;;8.90;99.90;;;;;;5096149;28;20232;-77
2022/04/05 10:40:10;;;;;;;4.72;1.30;;;9.00;99.90;;;;;;5079330;28;20047;-79
2022/04/05 10:42:41;;;;;;;4.88;1.20;;;9.00;99.90;;;;;;5095210;28;20499;-77
2022/04/05 10:45:15;;;;;;;3.38;1.45;;;9.30;99.90;;;;;;5079246;28;20494;-79
2022/04/05 10:48:13;;;;;;;3.30;1.42;;;9.30;99.90;;;;;;5095543;28;20114;-81
2022/04/05 10:51:07;;;;;;;2.22;1.15;;;9.40;99.90;;;;;;5096197;28;20126;-81
2022/04/05 10:54:17;;;;;;;4.30;1.35;;;9.40;99.90;;;;;;5065729;28;20054;-79
2022/04/05 10:56:25;;;;;;;3.50;1.35;;;9.40;99.90;;;;;;5097797;28;20040;-79
2022/04/05 10:58:54;;;;;;;3.55;1.17;;;9.50;99.90;;;;;;5096016;28;20035;-78
2022/04/05 11:01:39;;;;;;;2.85;1.42;;;9.60;99.90;;;;;;5095088;28;20039;-79
2022/04/05 11:04:14;;;;;;;2.47;1.13;;;9.60;99.90;;;;;;5095685;28;20047;-76
2022/04/05 11:06:58;;;;;;;5.50;1.33;;;9.50;99.90;;;;;;5093348;27;20576;-79
2022/04/05 11:09:25;;;;;;;2.33;1.15;;;9.40;99.90;;;;;;5116227;27;20065;-78
2022/04/05 11:11:53;;;;;;;2.35;1.00;;;9.70;99.90;;;;;;5134291;27;20043;-79
2022/04/05 11:14:35;;;;;;;2.03;0.98;;;9.60;99.90;;;;;;5099494;27;20051;-78
2022/04/05 11:17:05;;;;;;;2.63;1.23;;;9.80;99.90;;;;;;5095885;28;20053;-79
2022/04/05 11:19:37;;;;;;;2.15;0.90;;;10.00;99.90;;;;;;5095741;28;20092;-78
2022/04/05 11:22:25;;;;;;;2.72;1.10;;;9.90;99.90;;;;;;5095159;28;20047;-81
2022/04/05 11:25:13;;;;;;;1.85;1.00;;;10.00;99.90;;;;;;5078410;28;20463;-76
2022/04/05 11:27:49;;;;;;;2.70;1.10;;;10.00;99.90;;;;;;5078250;28;20100;-78
2022/04/05 11:30:21;;;;;;;1.33;0.88;;;10.20;99.90;;;;;;5078509;28;20054;-76
2022/04/05 11:33:09;;;;;;;1.67;1.20;;;10.10;99.90;;;;;;5078347;28;20504;-79
2022/04/05 11:35:36;;;;;;;1.20;0.95;;;10.10;99.90;;;;;;5078529;28;20043;-78
2022/04/05 11:38:03;;;;;;;1.77;0.90;;;10.10;99.90;;;;;;5095275;28;20317;-79
2022/04/05 11:40:30;;;;;;;4.38;1.20;;;10.00;99.90;;;;;;5094980;28;20039;-79
2022/04/05 11:43:01;;;;;;;1.20;1.10;;;10.10;99.90;;;;;;5077624;28;20487;-80
2022/04/05 11:45:29;;;;;;;2.08;1.30;;;10.00;99.90;;;;;;5077685;28;20059;-80
2022/04/05 11:47:55;;;;;;;1.88;1.35;;;10.20;99.90;;;;;;5078549;28;20043;-80
2022/04/05 11:50:23;;;;;;;1.52;0.93;;;10.30;99.90;;;;;;5077911;28;20043;-79
2022/04/05 11:52:49;;;;;;;1.30;1.00;;;10.60;99.90;;;;;;5113247;28;20089;-80
2022/04/05 11:56:12;;;;;;;0.93;0.90;;;10.30;99.90;;;;;;5095047;28;20139;-81
2022/04/05 11:58:45;;;;;;;1.10;1.00;;;10.30;99.90;;;;;;5032972;28;20360;-80
2022/04/05 12:01:13;;;;;;;1.05;1.05;;;10.30;99.90;;;;;;5016585;28;20159;-80
2022/04/05 12:03:49;;;;;;;0.90;0.90;;;10.80;99.90;;;;;;5033028;28;20057;-79
2022/04/05 12:06:30;;;;;;;1.10;1.00;;;10.40;99.90;;;;;;5029124;28;20044;-77
2022/04/05 12:08:58;;;;;;;2.55;1.13;;;10.40;99.90;;;;;;5053359;28;20094;-78
2022/04/05 12:11:25;;;;;;;2.20;1.27;;;10.40;99.90;;;;;;5052563;28;20033;-79
2022/04/05 12:13:56;;;;;;;1.25;1.10;;;10.50;99.90;;;;;;5053259;28;20045;-80
2022/04/05 12:16:23;;;;;;;1.20;1.10;;;10.80;99.90;;;;;;5035559;28;20622;-78
2022/04/05 12:18:51;;;;;;;1.30;1.20;;;10.80;99.90;;;;;;5053192;28;20044;-79
2022/04/05 12:21:17;;;;;;;1.42;1.30;;;10.80;99.90;;;;;;5053110;28;20041;-79
2022/04/05 12:23:45;;;;;;;1.58;1.20;;;11.10;99.90;;;;;;5052643;28;20106;-80
2022/04/05 12:26:21;;;;;;;4.00;1.40;;;11.00;99.90;;;;;;5052693;28;20071;-78
2022/04/05 12:28:55;;;;;;;1.60;1.35;;;11.00;99.90;;;;;;5051583;27;20078;-78
2022/04/05 12:31:28;;;;;;;1.67;1.52;;;10.90;99.90;;;;;;5132327;27;20529;-78
2022/04/05 12:34:08;;;;;;;1.98;1.60;;;11.20;99.90;;;;;;5114768;27;20081;-78
2022/04/05 12:36:54;;;;;;;2.33;1.67;;;11.40;99.90;;;;;;5097488;27;20035;-81
2022/04/05 12:39:27;;;;;;;2.80;1.70;;;11.60;99.90;;;;;;5097270;27;20043;-81
2022/04/05 12:42:00;;;;;;;2.10;1.80;;;11.60;99.90;;;;;;5132159;27;20043;-79
2022/04/05 12:44:31;;;;;;;1.83;1.65;;;11.60;99.90;;;;;;5097176;27;20043;-80
2022/04/05 12:47:08;;;;;;;1.80;1.70;;;11.50;99.90;;;;;;5113755;27;20075;-78
2022/04/05 12:49:38;;;;;;;2.38;1.95;;;11.30;99.90;;;;;;5096871;27;20050;-80
2022/04/05 12:52:10;;;;;;;1.70;1.60;;;11.10;99.90;;;;;;5097238;27;20130;-78
2022/04/05 12:54:37;;;;;;;2.53;1.85;;;11.10;99.90;;;;;;5094022;28;20447;-81